Bloomfield, Indiana
Current Conditions -  °F | °C
As of 6:18 AM on Thursday 23 Oct 2014 (Local Time) from KBMG Reporting Station
Moderate Fog Moderate Fog  
Wind Chill:   Ceiling: Unl
Heat Index:   Visibility: 0.5mi
Dew Point:   Wind: 0mph
Humidity: 96%   Direction: NA
Pressure: 30.25"   Gusts: NA
Location:  39.03°N, 86.94°W
Report Text: KBMG 231018Z AUTO 00000KT 1/2SM FG CLR 01/01 A3025 RMK AO2 I1000 T00110006
Loading
Personal Weather Stations






























Interactive Weather Map
Tropical Storm Tracking
New forecast layout! Learn more

10-Day Weather Forecast

Advertisements
Track Severe Weather on mobile